sensor_id;sensor_type;location;lat;lon;timestamp;pressure;altitude;pressure_sealevel;temperature;humidity
57086;BME280;42964;42.910;23.792;2023-04-29T00:01:46;97811.56;;;5.02;76.86
57086;BME280;42964;42.910;23.792;2023-04-29T00:06:46;97813.22;;;5.00;76.70
57086;BME280;42964;42.910;23.792;2023-04-29T00:11:48;97802.59;;;4.86;77.03
57086;BME280;42964;42.910;23.792;2023-04-29T00:16:48;97809.56;;;4.90;77.06
57086;BME280;42964;42.910;23.792;2023-04-29T00:21:47;97797.50;;;4.89;77.07
57086;BME280;42964;42.910;23.792;2023-04-29T00:26:46;97793.19;;;4.86;76.92
57086;BME280;42964;42.910;23.792;2023-04-29T00:31:45;97792.06;;;4.74;77.77
57086;BME280;42964;42.910;23.792;2023-04-29T00:36:44;97782.44;;;4.66;78.03
57086;BME280;42964;42.910;23.792;2023-04-29T00:41:42;97768.56;;;4.58;78.18
57086;BME280;42964;42.910;23.792;2023-04-29T00:46:42;97781.44;;;4.60;78.21
57086;BME280;42964;42.910;23.792;2023-04-29T00:51:41;97774.34;;;4.49;78.88
57086;BME280;42964;42.910;23.792;2023-04-29T00:56:42;97759.44;;;4.35;78.98
57086;BME280;42964;42.910;23.792;2023-04-29T01:01:43;97750.19;;;4.41;78.98
57086;BME280;42964;42.910;23.792;2023-04-29T01:06:51;97764.53;;;4.32;80.11
57086;BME280;42964;42.910;23.792;2023-04-29T01:17:05;97755.69;;;4.20;79.46
57086;BME280;42964;42.910;23.792;2023-04-29T01:22:08;97759.00;;;4.16;79.10
57086;BME280;42964;42.910;23.792;2023-04-29T01:27:27;97752.06;;;4.12;79.38
57086;BME280;42964;42.910;23.792;2023-04-29T01:38:06;97730.19;;;3.93;79.89
57086;BME280;42964;42.910;23.792;2023-04-29T01:43:11;97758.25;;;3.85;80.68
57086;BME280;42964;42.910;23.792;2023-04-29T01:48:12;97759.97;;;3.86;81.07
57086;BME280;42964;42.910;23.792;2023-04-29T01:53:11;97753.28;;;3.92;80.19
57086;BME280;42964;42.910;23.792;2023-04-29T01:58:10;97752.50;;;3.94;80.07
57086;BME280;42964;42.910;23.792;2023-04-29T02:03:09;97726.22;;;3.71;80.10
57086;BME280;42964;42.910;23.792;2023-04-29T02:08:08;97749.69;;;3.86;80.41
57086;BME280;42964;42.910;23.792;2023-04-29T02:13:07;97740.16;;;3.81;80.24
57086;BME280;42964;42.910;23.792;2023-04-29T02:18:06;97743.47;;;3.77;79.98
57086;BME280;42964;42.910;23.792;2023-04-29T02:23:05;97734.66;;;3.67;79.94
57086;BME280;42964;42.910;23.792;2023-04-29T02:28:04;97748.38;;;3.68;80.55
57086;BME280;42964;42.910;23.792;2023-04-29T02:33:03;97742.38;;;3.67;80.56
57086;BME280;42964;42.910;23.792;2023-04-29T02:38:02;97736.25;;;3.62;80.43
57086;BME280;42964;42.910;23.792;2023-04-29T02:43:01;97745.56;;;3.58;80.95
57086;BME280;42964;42.910;23.792;2023-04-29T02:48:00;97747.03;;;3.49;81.58
57086;BME280;42964;42.910;23.792;2023-04-29T02:52:59;97732.41;;;3.46;81.04
57086;BME280;42964;42.910;23.792;2023-04-29T02:57:58;97665.34;;;2.99;81.01
57086;BME280;42964;42.910;23.792;2023-04-29T03:02:57;97749.38;;;3.41;81.53
57086;BME280;42964;42.910;23.792;2023-04-29T03:07:56;97773.47;;;3.16;82.42
57086;BME280;42964;42.910;23.792;2023-04-29T03:12:55;97763.28;;;3.19;82.16
57086;BME280;42964;42.910;23.792;2023-04-29T03:17:54;97749.75;;;3.23;81.98
57086;BME280;42964;42.910;23.792;2023-04-29T03:22:53;97758.53;;;3.31;81.80
57086;BME280;42964;42.910;23.792;2023-04-29T03:27:52;97757.03;;;3.39;82.25
57086;BME280;42964;42.910;23.792;2023-04-29T03:32:51;97752.94;;;3.46;81.88
57086;BME280;42964;42.910;23.792;2023-04-29T03:37:50;97773.09;;;3.64;81.81
57086;BME280;42964;42.910;23.792;2023-04-29T03:42:49;97775.00;;;3.71;81.63
57086;BME280;42964;42.910;23.792;2023-04-29T03:47:47;97775.25;;;3.82;81.93
57086;BME280;42964;42.910;23.792;2023-04-29T03:52:47;97751.47;;;3.88;81.62
57086;BME280;42964;42.910;23.792;2023-04-29T03:57:46;97787.31;;;4.19;81.16
57086;BME280;42964;42.910;23.792;2023-04-29T04:02:44;97785.19;;;4.38;79.99
57086;BME280;42964;42.910;23.792;2023-04-29T04:07:44;97788.84;;;4.46;79.83
57086;BME280;42964;42.910;23.792;2023-04-29T04:12:43;97796.66;;;4.52;79.41
57086;BME280;42964;42.910;23.792;2023-04-29T04:17:42;97791.63;;;4.57;79.15
57086;BME280;42964;42.910;23.792;2023-04-29T04:22:41;97773.09;;;4.70;79.36
57086;BME280;42964;42.910;23.792;2023-04-29T04:27:40;97764.25;;;4.95;78.75
57086;BME280;42964;42.910;23.792;2023-04-29T04:32:39;97755.94;;;5.08;78.14
57086;BME280;42964;42.910;23.792;2023-04-29T04:37:38;97732.97;;;5.18;77.10
57086;BME280;42964;42.910;23.792;2023-04-29T04:42:37;97736.81;;;5.38;76.90
57086;BME280;42964;42.910;23.792;2023-04-29T04:47:36;97750.69;;;5.45;76.79
57086;BME280;42964;42.910;23.792;2023-04-29T04:52:35;97751.72;;;5.54;76.70
57086;BME280;42964;42.910;23.792;2023-04-29T04:57:34;97754.88;;;5.41;77.73
57086;BME280;42964;42.910;23.792;2023-04-29T05:02:33;97765.16;;;4.97;79.92
57086;BME280;42964;42.910;23.792;2023-04-29T05:07:32;97770.03;;;5.26;79.37
57086;BME280;42964;42.910;23.792;2023-04-29T05:12:33;97758.75;;;5.65;77.92
57086;BME280;42964;42.910;23.792;2023-04-29T05:17:33;97748.28;;;6.04;76.53
57086;BME280;42964;42.910;23.792;2023-04-29T05:22:33;97741.22;;;6.46;74.89
57086;BME280;42964;42.910;23.792;2023-04-29T05:27:33;97733.09;;;6.77;73.87
57086;BME280;42964;42.910;23.792;2023-04-29T05:32:32;97747.13;;;6.99;71.02
57086;BME280;42964;42.910;23.792;2023-04-29T05:37:31;97742.28;;;7.22;69.57
57086;BME280;42964;42.910;23.792;2023-04-29T05:42:30;97725.34;;;7.43;67.86
57086;BME280;42964;42.910;23.792;2023-04-29T05:47:28;97724.75;;;7.73;66.54
57086;BME280;42964;42.910;23.792;2023-04-29T05:52:28;97738.72;;;7.91;67.08
57086;BME280;42964;42.910;23.792;2023-04-29T05:57:26;97708.81;;;8.22;65.90
57086;BME280;42964;42.910;23.792;2023-04-29T06:02:26;97625.94;;;7.97;63.43
57086;BME280;42964;42.910;23.792;2023-04-29T06:07:25;97701.38;;;8.65;62.25
57086;BME280;42964;42.910;23.792;2023-04-29T06:12:25;97710.09;;;8.90;60.65
57086;BME280;42964;42.910;23.792;2023-04-29T06:17:24;97712.78;;;9.13;58.79
57086;BME280;42964;42.910;23.792;2023-04-29T06:22:23;97711.13;;;9.27;57.60
57086;BME280;42964;42.910;23.792;2023-04-29T06:27:22;97723.31;;;9.42;60.30
57086;BME280;42964;42.910;23.792;2023-04-29T06:32:21;97713.72;;;9.26;62.42
57086;BME280;42964;42.910;23.792;2023-04-29T06:37:20;97710.25;;;9.24;62.87
57086;BME280;42964;42.910;23.792;2023-04-29T06:42:18;97706.84;;;9.28;62.89
57086;BME280;42964;42.910;23.792;2023-04-29T06:47:18;97664.59;;;9.46;62.11
57086;BME280;42964;42.910;23.792;2023-04-29T06:52:17;97698.34;;;9.95;59.23
57086;BME280;42964;42.910;23.792;2023-04-29T06:57:16;97685.38;;;10.19;59.05
57086;BME280;42964;42.910;23.792;2023-04-29T07:02:15;97675.81;;;10.66;56.88
57086;BME280;42964;42.910;23.792;2023-04-29T07:07:16;97669.66;;;10.99;56.19
57086;BME280;42964;42.910;23.792;2023-04-29T07:12:14;97657.34;;;11.35;55.45
57086;BME280;42964;42.910;23.792;2023-04-29T07:17:13;97653.72;;;11.67;51.85
57086;BME280;42964;42.910;23.792;2023-04-29T07:22:12;97648.22;;;12.01;50.63
57086;BME280;42964;42.910;23.792;2023-04-29T07:27:11;97631.56;;;12.23;48.87
57086;BME280;42964;42.910;23.792;2023-04-29T07:32:10;97645.75;;;12.80;47.46
57086;BME280;42964;42.910;23.792;2023-04-29T07:37:09;97646.91;;;13.27;44.43
57086;BME280;42964;42.910;23.792;2023-04-29T07:42:08;97629.13;;;13.56;44.62
57086;BME280;42964;42.910;23.792;2023-04-29T07:47:07;97640.84;;;13.85;41.81
57086;BME280;42964;42.910;23.792;2023-04-29T07:52:06;97637.56;;;14.27;40.90
57086;BME280;42964;42.910;23.792;2023-04-29T07:57:07;97628.94;;;14.68;42.28
57086;BME280;42964;42.910;23.792;2023-04-29T08:02:06;97626.09;;;15.24;38.95
57086;BME280;42964;42.910;23.792;2023-04-29T08:07:05;97615.44;;;15.32;34.00
57086;BME280;42964;42.910;23.792;2023-04-29T08:12:04;97611.25;;;16.01;34.26
57086;BME280;42964;42.910;23.792;2023-04-29T08:17:03;97610.75;;;16.21;32.22
57086;BME280;42964;42.910;23.792;2023-04-29T08:22:02;97610.91;;;16.47;32.87
57086;BME280;42964;42.910;23.792;2023-04-29T08:27:02;97600.50;;;16.77;31.89
57086;BME280;42964;42.910;23.792;2023-04-29T08:32:02;97597.97;;;17.05;29.67
57086;BME280;42964;42.910;23.792;2023-04-29T08:37:03;97594.28;;;17.12;29.67
57086;BME280;42964;42.910;23.792;2023-04-29T08:42:09;97592.66;;;17.37;28.99
57086;BME280;42964;42.910;23.792;2023-04-29T08:47:08;97569.22;;;17.30;28.22
57086;BME280;42964;42.910;23.792;2023-04-29T08:52:07;97585.63;;;17.65;28.00
57086;BME280;42964;42.910;23.792;2023-04-29T08:57:09;97569.63;;;18.01;27.49
57086;BME280;42964;42.910;23.792;2023-04-29T09:02:12;97569.13;;;17.90;28.16
57086;BME280;42964;42.910;23.792;2023-04-29T09:07:15;97578.25;;;18.05;28.96
57086;BME280;42964;42.910;23.792;2023-04-29T09:12:14;97570.94;;;17.88;29.08
57086;BME280;42964;42.910;23.792;2023-04-29T09:17:13;97516.88;;;17.54;28.10
57086;BME280;42964;42.910;23.792;2023-04-29T09:22:14;97549.00;;;17.89;28.51
57086;BME280;42964;42.910;23.792;2023-04-29T09:27:25;97542.44;;;17.75;29.40
57086;BME280;42964;42.910;23.792;2023-04-29T09:32:25;97528.97;;;17.86;29.12
57086;BME280;42964;42.910;23.792;2023-04-29T09:37:25;97536.00;;;17.59;28.23
57086;BME280;42964;42.910;23.792;2023-04-29T09:42:25;97528.00;;;17.62;28.73
57086;BME280;42964;42.910;23.792;2023-04-29T09:47:29;97520.66;;;17.98;27.25
57086;BME280;42964;42.910;23.792;2023-04-29T09:52:39;97524.13;;;18.26;27.43
57086;BME280;42964;42.910;23.792;2023-04-29T09:57:39;97512.94;;;18.44;27.01
57086;BME280;42964;42.910;23.792;2023-04-29T10:02:45;97501.69;;;18.64;26.20
57086;BME280;42964;42.910;23.792;2023-04-29T10:07:46;97506.72;;;18.72;24.68
57086;BME280;42964;42.910;23.792;2023-04-29T10:12:51;97493.47;;;18.73;24.59
57086;BME280;42964;42.910;23.792;2023-04-29T10:17:57;97493.44;;;18.75;26.13
57086;BME280;42964;42.910;23.792;2023-04-29T10:22:57;97482.56;;;18.84;26.58
57086;BME280;42964;42.910;23.792;2023-04-29T10:27:58;97465.25;;;19.22;26.50
57086;BME280;42964;42.910;23.792;2023-04-29T10:32:58;97471.25;;;19.70;26.18
57086;BME280;42964;42.910;23.792;2023-04-29T10:38:00;97457.16;;;20.12;25.15
57086;BME280;42964;42.910;23.792;2023-04-29T10:43:03;97455.19;;;20.57;23.36
57086;BME280;42964;42.910;23.792;2023-04-29T10:53:04;97450.56;;;20.98;23.33
57086;BME280;42964;42.910;23.792;2023-04-29T10:58:04;97453.94;;;21.02;23.09
57086;BME280;42964;42.910;23.792;2023-04-29T11:03:04;97401.13;;;20.84;22.17
57086;BME280;42964;42.910;23.792;2023-04-29T11:08:14;97447.25;;;21.31;23.10
57086;BME280;42964;42.910;23.792;2023-04-29T11:13:23;97430.66;;;20.74;22.14
57086;BME280;42964;42.910;23.792;2023-04-29T11:18:23;97444.22;;;20.66;22.65
57086;BME280;42964;42.910;23.792;2023-04-29T11:23:26;97446.16;;;20.42;22.96
57086;BME280;42964;42.910;23.792;2023-04-29T11:28:27;97402.50;;;19.97;23.70
57086;BME280;42964;42.910;23.792;2023-04-29T11:33:30;97456.56;;;19.85;24.09
57086;BME280;42964;42.910;23.792;2023-04-29T11:38:30;97406.69;;;19.19;24.88
57086;BME280;42964;42.910;23.792;2023-04-29T11:43:29;97463.91;;;19.34;23.60
57086;BME280;42964;42.910;23.792;2023-04-29T11:48:28;97457.75;;;19.35;23.47
57086;BME280;42964;42.910;23.792;2023-04-29T11:53:28;97462.59;;;19.24;23.36
57086;BME280;42964;42.910;23.792;2023-04-29T11:58:27;97458.25;;;19.23;25.40
57086;BME280;42964;42.910;23.792;2023-04-29T12:03:25;97472.84;;;18.86;29.77
57086;BME280;42964;42.910;23.792;2023-04-29T12:08:26;97462.13;;;18.69;31.62
57086;BME280;42964;42.910;23.792;2023-04-29T12:13:27;97471.88;;;18.18;33.07
57086;BME280;42964;42.910;23.792;2023-04-29T12:18:27;97481.25;;;18.00;33.49
57086;BME280;42964;42.910;23.792;2023-04-29T12:23:27;97484.31;;;17.88;34.82
57086;BME280;42964;42.910;23.792;2023-04-29T12:28:26;97429.91;;;17.40;35.71
57086;BME280;42964;42.910;23.792;2023-04-29T12:33:26;97464.41;;;17.54;36.94
57086;BME280;42964;42.910;23.792;2023-04-29T12:38:27;97475.03;;;17.51;36.85
57086;BME280;42964;42.910;23.792;2023-04-29T12:43:28;97446.56;;;17.12;37.32
57086;BME280;42964;42.910;23.792;2023-04-29T12:48:31;97361.38;;;16.70;38.21
57086;BME280;42964;42.910;23.792;2023-04-29T12:53:31;97481.66;;;17.08;38.46
57086;BME280;42964;42.910;23.792;2023-04-29T12:58:30;97479.03;;;16.78;40.87
57086;BME280;42964;42.910;23.792;2023-04-29T13:03:30;97478.47;;;16.98;40.98
57086;BME280;42964;42.910;23.792;2023-04-29T13:08:30;97485.31;;;17.02;41.58
57086;BME280;42964;42.910;23.792;2023-04-29T13:13:29;97486.19;;;17.31;41.50
57086;BME280;42964;42.910;23.792;2023-04-29T13:18:29;97491.16;;;17.39;40.73
57086;BME280;42964;42.910;23.792;2023-04-29T13:23:28;97495.59;;;17.10;40.77
57086;BME280;42964;42.910;23.792;2023-04-29T13:28:27;97494.91;;;17.03;41.17
57086;BME280;42964;42.910;23.792;2023-04-29T13:33:26;97505.56;;;16.67;42.12
57086;BME280;42964;42.910;23.792;2023-04-29T13:38:25;97501.00;;;16.44;42.97
57086;BME280;42964;42.910;23.792;2023-04-29T13:43:24;97495.69;;;16.77;43.23
57086;BME280;42964;42.910;23.792;2023-04-29T13:48:23;97491.22;;;17.09;43.61
57086;BME280;42964;42.910;23.792;2023-04-29T13:53:22;97493.91;;;17.35;42.73
57086;BME280;42964;42.910;23.792;2023-04-29T13:58:21;97495.41;;;17.43;40.83
57086;BME280;42964;42.910;23.792;2023-04-29T14:03:20;97493.31;;;17.26;40.16
57086;BME280;42964;42.910;23.792;2023-04-29T14:08:19;97500.16;;;17.03;42.30
57086;BME280;42964;42.910;23.792;2023-04-29T14:13:18;97494.78;;;17.08;41.82
57086;BME280;42964;42.910;23.792;2023-04-29T14:18:17;97513.56;;;16.63;44.87
57086;BME280;42964;42.910;23.792;2023-04-29T14:23:16;97507.41;;;16.01;46.77
57086;BME280;42964;42.910;23.792;2023-04-29T14:28:15;97508.78;;;15.83;47.10
57086;BME280;42964;42.910;23.792;2023-04-29T14:33:14;97513.50;;;15.67;49.76
57086;BME280;42964;42.910;23.792;2023-04-29T14:38:12;97514.78;;;15.51;55.30
57086;BME280;42964;42.910;23.792;2023-04-29T14:43:11;97516.94;;;15.34;55.69
57086;BME280;42964;42.910;23.792;2023-04-29T14:48:10;97516.19;;;15.29;57.03
57086;BME280;42964;42.910;23.792;2023-04-29T14:53:09;97512.91;;;15.20;58.05
57086;BME280;42964;42.910;23.792;2023-04-29T14:58:08;97482.25;;;14.90;58.41
57086;BME280;42964;42.910;23.792;2023-04-29T15:03:07;97490.44;;;15.48;58.94
57086;BME280;42964;42.910;23.792;2023-04-29T15:08:06;97481.94;;;15.74;57.59
57086;BME280;42964;42.910;23.792;2023-04-29T15:13:06;97473.44;;;16.00;55.24
57086;BME280;42964;42.910;23.792;2023-04-29T15:18:04;97467.75;;;16.17;54.86
57086;BME280;42964;42.910;23.792;2023-04-29T15:23:06;97467.28;;;16.32;53.21
57086;BME280;42964;42.910;23.792;2023-04-29T15:28:06;97409.94;;;15.93;50.11
57086;BME280;42964;42.910;23.792;2023-04-29T15:33:05;97460.75;;;16.17;50.53
57086;BME280;42964;42.910;23.792;2023-04-29T15:38:04;97458.72;;;16.27;51.18
57086;BME280;42964;42.910;23.792;2023-04-29T15:43:04;97451.53;;;16.34;50.42
57086;BME280;42964;42.910;23.792;2023-04-29T15:48:03;97452.66;;;16.25;49.58
57086;BME280;42964;42.910;23.792;2023-04-29T15:53:02;97448.63;;;16.13;50.07
57086;BME280;42964;42.910;23.792;2023-04-29T15:58:01;97447.34;;;15.97;50.05
57086;BME280;42964;42.910;23.792;2023-04-29T16:03:00;97436.13;;;15.93;49.71
57086;BME280;42964;42.910;23.792;2023-04-29T16:07:59;97242.41;;;14.68;49.25
57086;BME280;42964;42.910;23.792;2023-04-29T16:12:58;97436.69;;;15.72;49.10
57086;BME280;42964;42.910;23.792;2023-04-29T16:17:56;97438.03;;;15.52;49.49
57086;BME280;42964;42.910;23.792;2023-04-29T16:22:55;97435.66;;;15.43;49.94
57086;BME280;42964;42.910;23.792;2023-04-29T16:27:54;97425.44;;;15.34;52.68
57086;BME280;42964;42.910;23.792;2023-04-29T16:32:54;97430.75;;;15.31;54.42
57086;BME280;42964;42.910;23.792;2023-04-29T16:37:53;97428.28;;;15.24;55.02
57086;BME280;42964;42.910;23.792;2023-04-29T16:42:51;97436.22;;;15.20;55.39
57086;BME280;42964;42.910;23.792;2023-04-29T16:47:51;97444.88;;;15.23;56.73
57086;BME280;42964;42.910;23.792;2023-04-29T16:52:50;97437.25;;;15.14;57.14
57086;BME280;42964;42.910;23.792;2023-04-29T16:57:50;97450.13;;;14.85;59.17
57086;BME280;42964;42.910;23.792;2023-04-29T17:02:49;97451.59;;;14.57;61.49
57086;BME280;42964;42.910;23.792;2023-04-29T17:07:48;97459.38;;;14.59;62.04
57086;BME280;42964;42.910;23.792;2023-04-29T17:12:47;97464.69;;;14.56;63.49
57086;BME280;42964;42.910;23.792;2023-04-29T17:17:46;97466.63;;;14.46;63.30
57086;BME280;42964;42.910;23.792;2023-04-29T17:22:45;97462.41;;;14.40;63.37
57086;BME280;42964;42.910;23.792;2023-04-29T17:27:44;97458.13;;;14.36;62.52
57086;BME280;42964;42.910;23.792;2023-04-29T17:32:46;97427.19;;;14.18;62.52
57086;BME280;42964;42.910;23.792;2023-04-29T17:37:47;97458.22;;;14.32;62.03
57086;BME280;42964;42.910;23.792;2023-04-29T17:42:46;97466.94;;;14.31;61.45
57086;BME280;42964;42.910;23.792;2023-04-29T17:47:44;97471.22;;;14.33;61.14
57086;BME280;42964;42.910;23.792;2023-04-29T17:52:44;97469.53;;;14.32;61.32
57086;BME280;42964;42.910;23.792;2023-04-29T17:57:43;97465.22;;;14.31;61.63
57086;BME280;42964;42.910;23.792;2023-04-29T18:02:42;97469.63;;;14.26;62.66
57086;BME280;42964;42.910;23.792;2023-04-29T18:07:41;97479.28;;;14.23;63.27
57086;BME280;42964;42.910;23.792;2023-04-29T18:12:40;97473.41;;;14.13;63.48
57086;BME280;42964;42.910;23.792;2023-04-29T18:17:39;97479.63;;;14.06;63.27
57086;BME280;42964;42.910;23.792;2023-04-29T18:22:38;97484.94;;;13.99;64.05
57086;BME280;42964;42.910;23.792;2023-04-29T18:27:37;97476.44;;;13.91;63.43
57086;BME280;42964;42.910;23.792;2023-04-29T18:32:36;97492.00;;;13.94;64.09
57086;BME280;42964;42.910;23.792;2023-04-29T18:37:35;97479.91;;;13.90;64.80
57086;BME280;42964;42.910;23.792;2023-04-29T18:42:34;97479.22;;;13.82;65.72
57086;BME280;42964;42.910;23.792;2023-04-29T18:47:32;97471.66;;;13.67;66.59
57086;BME280;42964;42.910;23.792;2023-04-29T18:52:31;97480.53;;;13.53;67.18
57086;BME280;42964;42.910;23.792;2023-04-29T18:57:30;97477.16;;;13.47;67.38
57086;BME280;42964;42.910;23.792;2023-04-29T19:02:29;97483.34;;;13.41;67.55
57086;BME280;42964;42.910;23.792;2023-04-29T19:07:28;97486.13;;;13.30;66.70
57086;BME280;42964;42.910;23.792;2023-04-29T19:12:27;97473.13;;;13.29;65.90
57086;BME280;42964;42.910;23.792;2023-04-29T19:17:26;97474.13;;;13.20;66.46
57086;BME280;42964;42.910;23.792;2023-04-29T19:22:26;97411.97;;;12.40;71.21
57086;BME280;42964;42.910;23.792;2023-04-29T19:27:25;97484.50;;;12.67;73.39
57086;BME280;42964;42.910;23.792;2023-04-29T19:32:24;97479.47;;;12.52;75.16
57086;BME280;42964;42.910;23.792;2023-04-29T19:37:23;97405.50;;;12.02;74.27
57086;BME280;42964;42.910;23.792;2023-04-29T19:42:22;97487.16;;;12.60;74.19
57086;BME280;42964;42.910;23.792;2023-04-29T19:47:21;97482.81;;;12.62;73.65
57086;BME280;42964;42.910;23.792;2023-04-29T19:52:20;97487.09;;;12.64;74.11
57086;BME280;42964;42.910;23.792;2023-04-29T19:57:19;97476.69;;;12.66;73.69
57086;BME280;42964;42.910;23.792;2023-04-29T20:02:18;97411.25;;;12.30;73.77
57086;BME280;42964;42.910;23.792;2023-04-29T20:07:17;97471.50;;;12.64;73.85
57086;BME280;42964;42.910;23.792;2023-04-29T20:12:16;97473.28;;;12.61;73.45
57086;BME280;42964;42.910;23.792;2023-04-29T20:17:14;97477.66;;;12.60;72.64
57086;BME280;42964;42.910;23.792;2023-04-29T20:22:15;97483.66;;;12.62;72.31
57086;BME280;42964;42.910;23.792;2023-04-29T20:27:14;97476.03;;;12.50;72.70
57086;BME280;42964;42.910;23.792;2023-04-29T20:32:13;97477.75;;;12.51;73.80
57086;BME280;42964;42.910;23.792;2023-04-29T20:37:11;97475.16;;;12.49;74.62
57086;BME280;42964;42.910;23.792;2023-04-29T20:42:11;97407.16;;;12.09;74.64
57086;BME280;42964;42.910;23.792;2023-04-29T20:47:09;97464.72;;;12.52;74.93
57086;BME280;42964;42.910;23.792;2023-04-29T20:52:10;97460.41;;;12.50;74.51
57086;BME280;42964;42.910;23.792;2023-04-29T20:57:09;97459.53;;;12.51;73.87
57086;BME280;42964;42.910;23.792;2023-04-29T21:02:08;97463.84;;;12.52;73.35
57086;BME280;42964;42.910;23.792;2023-04-29T21:07:07;97469.97;;;12.49;72.21
57086;BME280;42964;42.910;23.792;2023-04-29T21:12:06;97454.41;;;12.43;72.91
57086;BME280;42964;42.910;23.792;2023-04-29T21:17:05;97460.88;;;12.12;75.88
57086;BME280;42964;42.910;23.792;2023-04-29T21:22:04;97468.09;;;11.86;77.39
57086;BME280;42964;42.910;23.792;2023-04-29T21:27:03;97470.72;;;11.83;77.61
57086;BME280;42964;42.910;23.792;2023-04-29T21:32:02;97470.78;;;11.79;77.69
57086;BME280;42964;42.910;23.792;2023-04-29T21:37:02;97470.72;;;11.82;77.94
57086;BME280;42964;42.910;23.792;2023-04-29T21:42:01;97420.72;;;11.60;77.08
57086;BME280;42964;42.910;23.792;2023-04-29T21:47:01;97469.72;;;11.94;77.24
57086;BME280;42964;42.910;23.792;2023-04-29T21:52:01;97467.94;;;11.99;77.17
57086;BME280;42964;42.910;23.792;2023-04-29T21:57:00;97455.94;;;11.88;77.26
57086;BME280;42964;42.910;23.792;2023-04-29T22:02:00;97470.63;;;11.93;77.74
57086;BME280;42964;42.910;23.792;2023-04-29T22:07:01;97460.22;;;11.91;77.88
57086;BME280;42964;42.910;23.792;2023-04-29T22:12:00;97420.59;;;11.71;78.38
57086;BME280;42964;42.910;23.792;2023-04-29T22:17:00;97449.00;;;11.87;77.76
57086;BME280;42964;42.910;23.792;2023-04-29T22:21:59;97391.28;;;11.58;77.68
57086;BME280;42964;42.910;23.792;2023-04-29T22:26:59;97444.75;;;11.80;78.42
57086;BME280;42964;42.910;23.792;2023-04-29T22:31:58;97438.09;;;11.52;80.40
57086;BME280;42964;42.910;23.792;2023-04-29T22:36:57;97435.69;;;11.33;81.14
57086;BME280;42964;42.910;23.792;2023-04-29T22:41:56;97415.94;;;11.14;81.26
57086;BME280;42964;42.910;23.792;2023-04-29T22:46:55;97429.91;;;11.03;81.73
57086;BME280;42964;42.910;23.792;2023-04-29T22:51:54;97418.72;;;10.91;82.36
57086;BME280;42964;42.910;23.792;2023-04-29T22:56:53;97417.03;;;10.82;81.89
57086;BME280;42964;42.910;23.792;2023-04-29T23:01:52;97413.56;;;10.83;80.96
57086;BME280;42964;42.910;23.792;2023-04-29T23:06:51;97414.50;;;10.73;81.85
57086;BME280;42964;42.910;23.792;2023-04-29T23:11:50;97421.53;;;10.61;81.28
57086;BME280;42964;42.910;23.792;2023-04-29T23:16:49;97408.63;;;10.46;81.51
57086;BME280;42964;42.910;23.792;2023-04-29T23:21:48;97413.03;;;10.38;81.81
57086;BME280;42964;42.910;23.792;2023-04-29T23:26:47;97401.81;;;10.28;82.10
57086;BME280;42964;42.910;23.792;2023-04-29T23:31:47;97363.97;;;9.92;82.52
57086;BME280;42964;42.910;23.792;2023-04-29T23:36:46;97412.28;;;10.11;82.93
57086;BME280;42964;42.910;23.792;2023-04-29T23:41:45;97414.03;;;10.00;82.50
57086;BME280;42964;42.910;23.792;2023-04-29T23:46:44;97414.16;;;9.82;82.93
57086;BME280;42964;42.910;23.792;2023-04-29T23:51:43;97412.47;;;9.59;84.10
57086;BME280;42964;42.910;23.792;2023-04-29T23:56:42;97412.50;;;9.41;83.97
